Meiners Oaks, California
Current Conditions -  °F | °C
As of 3:55 PM on Friday 21 Nov 2014 (Local Time) from KCMA Reporting Station
Clear Clear  
Wind Chill: 68°   Ceiling: Unl
Heat Index: 68°   Visibility: 10mi
Dew Point: 51°   Wind: 9mph
Humidity: 55%   Direction: 270°W
Pressure: 29.95"   Gusts: NA
Location:  34.5795°N, 119.124°W
Report Text: KCMA 212355Z 27008KT 10SM CLR 20/11 A2995 RMK AO2 SLP150 T02000106 10222 20183 53000
Loading
Personal Weather Stations






























Interactive Weather Map New forecast layout! Learn more

10-Day Weather Forecast

Advertisements
Track Severe Weather on mobile